createdAt,value
2024-01-17T00:00:52.307Z,-2.15
2024-01-17T00:03:19.029Z,-2.16
2024-01-17T00:05:45.628Z,-2.15
2024-01-17T00:08:12.222Z,-2.17
2024-01-17T00:10:38.667Z,-2.21
2024-01-17T00:13:05.144Z,-2.25
2024-01-17T00:15:31.830Z,-2.24
2024-01-17T00:17:58.385Z,-2.27
2024-01-17T00:20:24.987Z,-2.32
2024-01-17T00:22:51.668Z,-2.34
2024-01-17T00:25:18.303Z,-2.33
2024-01-17T00:27:45.055Z,-2.39
2024-01-17T00:30:11.863Z,-2.44
2024-01-17T00:32:38.627Z,-2.46
2024-01-17T00:35:05.628Z,-2.47
2024-01-17T00:37:32.113Z,-2.48
2024-01-17T00:39:58.631Z,-2.49
2024-01-17T00:42:27.513Z,-2.49
2024-01-17T00:44:55.091Z,-2.47
2024-01-17T00:47:21.768Z,-2.49
2024-01-17T00:49:48.353Z,-2.51
2024-01-17T00:52:14.810Z,-2.49
2024-01-17T00:54:41.203Z,-2.50
2024-01-17T00:57:07.748Z,-2.49
2024-01-17T00:59:34.283Z,-2.49
2024-01-17T01:02:03.137Z,-2.44
2024-01-17T01:04:29.696Z,-2.44
2024-01-17T01:06:56.144Z,-2.47
2024-01-17T01:09:22.634Z,-2.49
2024-01-17T01:11:49.172Z,-2.50
2024-01-17T01:14:15.710Z,-2.51
2024-01-17T01:16:43.422Z,-2.54
2024-01-17T01:19:10.217Z,-2.55
2024-01-17T01:21:36.844Z,-2.55
2024-01-17T01:24:03.526Z,-2.59
2024-01-17T01:26:30.060Z,-2.62
2024-01-17T01:28:57.935Z,-2.67
2024-01-17T01:31:24.523Z,-2.71
2024-01-17T01:33:51.102Z,-2.73
2024-01-17T01:36:17.660Z,-2.77
2024-01-17T01:38:44.136Z,-2.78
2024-01-17T01:41:10.605Z,-2.80
2024-01-17T01:43:37.043Z,-2.80
2024-01-17T01:46:22.097Z,-2.82
2024-01-17T01:48:50.140Z,-2.87
2024-01-17T01:51:17.100Z,-2.89
2024-01-17T01:53:45.755Z,-2.92
2024-01-17T01:56:14.693Z,-2.93
2024-01-17T01:58:44.547Z,-2.95
2024-01-17T02:01:12.495Z,-2.98
2024-01-17T02:03:42.352Z,-3.02
2024-01-17T02:06:08.860Z,-3.00
2024-01-17T02:08:35.887Z,-2.97
2024-01-17T02:11:02.672Z,-2.99
2024-01-17T02:15:57.493Z,-3.02
2024-01-17T02:18:24.044Z,-3.04
2024-01-17T02:20:50.551Z,-3.07
2024-01-17T02:23:25.233Z,-3.09
2024-01-17T02:25:52.542Z,-3.09
2024-01-17T02:28:19.028Z,-3.11
2024-01-17T02:30:46.032Z,-3.12
2024-01-17T02:33:17.506Z,-3.14
2024-01-17T02:35:44.323Z,-3.15
2024-01-17T02:38:11.199Z,-3.18
2024-01-17T02:40:38.031Z,-3.21
2024-01-17T02:43:05.261Z,-3.24
2024-01-17T02:45:32.451Z,-3.26
2024-01-17T02:47:59.627Z,-3.27
2024-01-17T02:50:27.093Z,-3.28
2024-01-17T02:52:53.836Z,-3.31
2024-01-17T02:55:20.441Z,-3.34
2024-01-17T02:57:47.128Z,-3.34
2024-01-17T03:00:13.837Z,-3.36
2024-01-17T03:02:40.465Z,-3.37
2024-01-17T03:05:08.503Z,-3.36
2024-01-17T03:07:34.971Z,-3.38
2024-01-17T03:10:01.424Z,-3.37
2024-01-17T03:12:27.881Z,-3.37
2024-01-17T03:14:54.496Z,-3.36
2024-01-17T03:17:21.431Z,-3.34
2024-01-17T03:19:48.537Z,-3.33
2024-01-17T03:22:18.208Z,-3.32
2024-01-17T03:24:47.166Z,-3.29
2024-01-17T03:27:14.451Z,-3.30
2024-01-17T03:29:41.083Z,-3.28
2024-01-17T03:32:07.625Z,-3.28
2024-01-17T03:34:34.176Z,-3.27
2024-01-17T03:37:00.726Z,-3.25
2024-01-17T03:39:27.603Z,-3.24
2024-01-17T03:41:54.025Z,-3.25
2024-01-17T03:44:20.486Z,-3.24
2024-01-17T03:46:46.888Z,-3.23
2024-01-17T03:49:13.561Z,-3.25
2024-01-17T03:51:39.985Z,-3.25
2024-01-17T03:54:07.335Z,-3.30
2024-01-17T03:56:33.832Z,-3.30
2024-01-17T03:59:00.415Z,-3.33
2024-01-17T04:01:26.987Z,-3.34
2024-01-17T04:03:55.193Z,-3.36
2024-01-17T04:06:21.668Z,-3.40
2024-01-17T04:08:48.092Z,-3.43
2024-01-17T04:11:14.524Z,-3.43
2024-01-17T04:13:43.790Z,-3.43
2024-01-17T04:16:10.256Z,-3.46
2024-01-17T04:18:38.431Z,-3.49
2024-01-17T04:21:05.460Z,-3.53
2024-01-17T04:23:32.010Z,-3.56
2024-01-17T04:25:58.477Z,-3.60
2024-01-17T04:28:24.974Z,-3.62
2024-01-17T04:30:51.414Z,-3.62
2024-01-17T04:33:17.992Z,-3.64
2024-01-17T04:35:44.501Z,-3.62
2024-01-17T04:38:10.944Z,-3.63
2024-01-17T04:40:37.382Z,-3.61
2024-01-17T04:43:04.029Z,-3.64
2024-01-17T04:45:31.658Z,-3.61
2024-01-17T04:47:58.222Z,-3.61
2024-01-17T04:50:24.883Z,-3.62
2024-01-17T04:52:51.571Z,-3.63
2024-01-17T04:55:18.090Z,-3.64
2024-01-17T04:57:44.537Z,-3.62
2024-01-17T05:00:13.798Z,-3.63
2024-01-17T05:02:40.468Z,-3.62
2024-01-17T05:05:07.261Z,-3.64
2024-01-17T05:07:33.762Z,-3.66
2024-01-17T05:10:00.415Z,-3.69
2024-01-17T05:12:26.890Z,-3.69
2024-01-17T05:14:53.378Z,-3.70
2024-01-17T05:17:19.871Z,-3.71
2024-01-17T05:19:46.634Z,-3.72
2024-01-17T05:22:15.493Z,-3.73
2024-01-17T05:24:42.184Z,-3.72
2024-01-17T05:27:08.720Z,-3.74
2024-01-17T05:29:39.098Z,-3.76
2024-01-17T05:32:06.707Z,-3.78
2024-01-17T05:34:33.181Z,-3.76
2024-01-17T05:36:59.664Z,-3.76
2024-01-17T05:39:26.121Z,-3.78
2024-01-17T05:41:52.625Z,-3.77
2024-01-17T05:44:19.075Z,-3.77
2024-01-17T05:46:46.009Z,-3.77
2024-01-17T05:49:12.753Z,-3.81
2024-01-17T05:51:39.208Z,-3.82
2024-01-17T05:54:06.286Z,-3.83
2024-01-17T05:56:32.855Z,-3.84
2024-01-17T05:58:59.317Z,-3.85
2024-01-17T06:01:25.737Z,-3.86
2024-01-17T06:03:52.191Z,-3.88
2024-01-17T06:06:18.761Z,-3.90
2024-01-17T06:08:45.277Z,-3.90
2024-01-17T06:11:11.701Z,-3.91
2024-01-17T06:13:38.154Z,-3.92
2024-01-17T06:16:04.825Z,-3.92
2024-01-17T06:18:31.368Z,-3.92
2024-01-17T06:20:57.822Z,-3.92
2024-01-17T06:23:24.292Z,-3.94
2024-01-17T06:25:50.701Z,-3.93
2024-01-17T06:28:19.281Z,-3.92
2024-01-17T06:30:45.951Z,-3.91
2024-01-17T06:33:12.660Z,-3.91
2024-01-17T06:35:39.488Z,-3.91
2024-01-17T06:38:05.966Z,-3.89
2024-01-17T06:40:33.462Z,-3.88
2024-01-17T06:42:59.866Z,-3.89
2024-01-17T06:45:26.655Z,-3.88
2024-01-17T06:47:53.171Z,-3.89
2024-01-17T06:50:20.146Z,-3.91
2024-01-17T06:52:46.706Z,-3.90
2024-01-17T06:55:14.533Z,-3.87
2024-01-17T06:57:42.182Z,-3.86
2024-01-17T07:00:09.312Z,-3.87
2024-01-17T07:02:35.848Z,-3.88
2024-01-17T07:05:03.173Z,-3.85
2024-01-17T07:07:29.734Z,-3.86
2024-01-17T07:09:56.139Z,-3.84
2024-01-17T07:12:22.801Z,-3.83
2024-01-17T07:14:49.715Z,-3.81
2024-01-17T07:17:16.750Z,-3.79
2024-01-17T07:19:43.189Z,-3.77
2024-01-17T07:22:10.847Z,-3.77
2024-01-17T07:24:37.229Z,-3.77
2024-01-17T07:27:03.979Z,-3.78
2024-01-17T07:29:30.430Z,-3.74
2024-01-17T07:31:56.922Z,-3.75
2024-01-17T07:34:23.887Z,-3.75
2024-01-17T07:36:52.779Z,-3.76
2024-01-17T07:39:22.420Z,-3.76
2024-01-17T07:41:49.202Z,-3.76
2024-01-17T07:44:15.891Z,-3.76
2024-01-17T07:46:42.311Z,-3.74
2024-01-17T07:49:09.005Z,-3.74
2024-01-17T07:51:35.959Z,-3.72
2024-01-17T07:54:02.507Z,-3.73
2024-01-17T07:56:29.032Z,-3.71
2024-01-17T07:58:55.772Z,-3.69
2024-01-17T08:01:22.229Z,-3.68
2024-01-17T08:03:48.817Z,-3.64
2024-01-17T08:06:15.317Z,-3.62
2024-01-17T08:08:41.946Z,-3.57
2024-01-17T08:11:08.332Z,-3.57
2024-01-17T08:13:35.607Z,-3.52
2024-01-17T08:16:02.078Z,-3.50
2024-01-17T08:18:28.649Z,-3.49
2024-01-17T08:20:55.239Z,-3.46
2024-01-17T08:23:21.611Z,-3.41
2024-01-17T08:25:48.314Z,-3.39
2024-01-17T08:28:15.019Z,-3.35
2024-01-17T08:30:41.574Z,-3.32
2024-01-17T08:33:08.170Z,-3.28
2024-01-17T08:35:35.039Z,-3.28
2024-01-17T08:38:01.610Z,-3.25
2024-01-17T08:40:28.045Z,-3.23
2024-01-17T08:42:54.551Z,-3.20
2024-01-17T08:45:21.114Z,-3.16
2024-01-17T08:47:47.677Z,-3.13
2024-01-17T08:50:15.071Z,-3.08
2024-01-17T08:52:41.491Z,-3.07
2024-01-17T08:55:10.001Z,-3.03
2024-01-17T08:57:38.593Z,-2.98
2024-01-17T09:00:07.376Z,-2.90
2024-01-17T09:02:36.688Z,-2.90
2024-01-17T09:05:03.969Z,-2.86
2024-01-17T09:07:33.368Z,-2.86
2024-01-17T09:10:00.379Z,-2.83
2024-01-17T09:12:27.078Z,-2.84
2024-01-17T09:14:56.011Z,-2.80
2024-01-17T09:17:22.740Z,-2.79
2024-01-17T09:19:49.325Z,-2.76
2024-01-17T09:22:15.868Z,-2.71
2024-01-17T09:24:42.577Z,-2.65
2024-01-17T09:27:09.233Z,-2.62
2024-01-17T09:29:36.829Z,-2.57
2024-01-17T09:32:04.596Z,-2.56
2024-01-17T09:34:34.166Z,-2.61
2024-01-17T09:37:02.047Z,-2.55
2024-01-17T09:39:30.087Z,-2.50
2024-01-17T09:41:58.933Z,-2.42
2024-01-17T09:44:25.908Z,-2.32
2024-01-17T09:46:52.658Z,-2.28
2024-01-17T09:49:20.277Z,-2.29
2024-01-17T09:51:47.659Z,-2.23
2024-01-17T09:54:16.941Z,-2.25
2024-01-17T09:56:44.460Z,-2.29
2024-01-17T09:59:16.295Z,-2.24
2024-01-17T10:01:44.576Z,-2.11
2024-01-17T10:04:15.485Z,-2.05
2024-01-17T10:06:45.591Z,-2.02
2024-01-17T10:09:13.469Z,-1.96
2024-01-17T10:11:40.352Z,-1.97
2024-01-17T10:14:08.764Z,-1.87
2024-01-17T10:16:36.546Z,-1.78
2024-01-17T10:19:05.521Z,-1.84
2024-01-17T10:21:34.441Z,-1.79
2024-01-17T10:24:01.660Z,-1.66
2024-01-17T10:26:28.225Z,-1.56
2024-01-17T10:28:54.678Z,-1.53
2024-01-17T10:31:24.586Z,-1.60
2024-01-17T10:33:55.092Z,-1.49
2024-01-17T10:36:22.736Z,-1.45
2024-01-17T10:38:50.788Z,-1.55
2024-01-17T10:41:17.610Z,-1.47
2024-01-17T10:43:54.679Z,-1.37
2024-01-17T10:46:21.548Z,-1.38
2024-01-17T10:48:48.804Z,-1.40
2024-01-17T10:51:21.394Z,-1.43
2024-01-17T10:53:55.321Z,-1.34
2024-01-17T10:56:24.171Z,-1.23
2024-01-17T10:58:52.575Z,-1.18
2024-01-17T11:01:26.178Z,-1.13
2024-01-17T11:03:57.663Z,-1.06
2024-01-17T11:06:25.377Z,-1.07
2024-01-17T11:08:52.887Z,-1.10
2024-01-17T11:11:20.924Z,-1.15
2024-01-17T11:13:48.519Z,-1.15
2024-01-17T11:16:17.394Z,-1.10
2024-01-17T11:18:47.354Z,-1.04
2024-01-17T11:21:14.172Z,-1.05
2024-01-17T11:23:46.584Z,-0.94
2024-01-17T11:26:45.670Z,-0.87
2024-01-17T11:29:49.331Z,-0.91
2024-01-17T11:32:29.446Z,-0.96
2024-01-17T11:34:55.980Z,-0.89
2024-01-17T11:37:35.670Z,-0.87
2024-01-17T11:40:02.369Z,-0.80
2024-01-17T11:42:28.794Z,-0.80
2024-01-17T11:45:05.424Z,-0.83
2024-01-17T11:47:39.982Z,-0.77
2024-01-17T11:50:06.842Z,-0.86
2024-01-17T11:52:36.957Z,-0.97
2024-01-17T11:55:03.983Z,-0.93
2024-01-17T11:57:36.986Z,-0.84
2024-01-17T12:00:12.510Z,-0.80
2024-01-17T12:02:41.421Z,-0.78
2024-01-17T12:05:09.863Z,-0.80
2024-01-17T12:07:44.768Z,-0.72
2024-01-17T12:10:13.627Z,-0.57
2024-01-17T12:12:45.189Z,-0.55
2024-01-17T12:15:13.543Z,-0.50
2024-01-17T12:17:41.389Z,-0.53
2024-01-17T12:20:08.759Z,-0.46
2024-01-17T12:22:38.870Z,-0.34
2024-01-17T12:25:05.692Z,-0.34
2024-01-17T12:27:34.153Z,-0.39
2024-01-17T12:30:06.151Z,-0.46
2024-01-17T12:32:33.415Z,-0.41
2024-01-17T12:35:00.517Z,-0.47
2024-01-17T12:37:29.074Z,-0.37
2024-01-17T12:39:56.104Z,-0.35
2024-01-17T12:42:22.690Z,-0.38
2024-01-17T12:44:49.546Z,-0.40
2024-01-17T12:47:16.226Z,-0.34
2024-01-17T12:49:45.969Z,-0.42
2024-01-17T12:52:12.521Z,-0.43
2024-01-17T12:54:39.312Z,-0.43
2024-01-17T12:57:05.964Z,-0.49
2024-01-17T12:59:33.324Z,-0.53
2024-01-17T13:01:59.990Z,-0.52
2024-01-17T13:04:26.801Z,-0.44
2024-01-17T13:06:58.626Z,-0.43
2024-01-17T13:09:30.597Z,-0.61
2024-01-17T13:11:57.607Z,-0.54
2024-01-17T13:14:25.622Z,-0.53
2024-01-17T13:16:52.667Z,-0.53
2024-01-17T13:19:19.695Z,-0.48
2024-01-17T13:21:51.212Z,-0.48
2024-01-17T13:24:18.069Z,-0.53
2024-01-17T13:26:45.495Z,-0.58
2024-01-17T13:29:13.951Z,-0.61
2024-01-17T13:31:42.213Z,-0.63
2024-01-17T13:34:08.913Z,-0.61
2024-01-17T13:36:35.710Z,-0.60
2024-01-17T13:39:02.987Z,-0.58
2024-01-17T13:41:32.132Z,-0.58
2024-01-17T13:43:58.806Z,-0.61
2024-01-17T13:46:27.460Z,-0.73
2024-01-17T13:48:54.497Z,-0.78
2024-01-17T13:51:23.583Z,-0.80
2024-01-17T13:53:54.588Z,-0.79
2024-01-17T13:56:21.602Z,-0.77
2024-01-17T13:58:47.991Z,-0.82
2024-01-17T14:01:19.618Z,-0.79
2024-01-17T14:03:47.618Z,-0.76
2024-01-17T14:06:15.536Z,-0.80
2024-01-17T14:08:42.298Z,-0.75
2024-01-17T14:11:09.760Z,-0.69
2024-01-17T14:13:36.213Z,-0.65
2024-01-17T14:16:02.759Z,-0.68
2024-01-17T14:18:29.793Z,-0.73
2024-01-17T14:20:56.740Z,-0.72
2024-01-17T14:23:23.290Z,-0.72
2024-01-17T14:25:49.752Z,-0.77
2024-01-17T14:28:16.718Z,-0.77
2024-01-17T14:30:43.111Z,-0.82
2024-01-17T14:33:09.785Z,-0.78
2024-01-17T14:35:38.807Z,-0.84
2024-01-17T14:38:05.910Z,-0.87
2024-01-17T14:40:32.327Z,-0.83
2024-01-17T14:42:59.047Z,-0.88
2024-01-17T14:45:25.532Z,-0.86
2024-01-17T14:47:52.052Z,-0.78
2024-01-17T14:50:18.650Z,-0.78
2024-01-17T14:52:46.261Z,-0.89
2024-01-17T14:55:12.922Z,-0.97
2024-01-17T14:57:39.463Z,-1.05
2024-01-17T15:00:07.647Z,-1.08
2024-01-17T15:02:34.886Z,-1.07
2024-01-17T15:05:01.649Z,-1.08
2024-01-17T15:07:30.458Z,-1.07
2024-01-17T15:09:57.310Z,-1.10
2024-01-17T15:12:24.149Z,-1.10
2024-01-17T15:14:50.619Z,-1.16
2024-01-17T15:17:17.090Z,-1.20
2024-01-17T15:19:44.667Z,-1.19
2024-01-17T15:22:11.278Z,-1.21
2024-01-17T15:24:38.192Z,-1.26
2024-01-17T15:27:05.691Z,-1.29
2024-01-17T15:29:32.297Z,-1.29
2024-01-17T15:31:59.758Z,-1.27
2024-01-17T15:34:26.204Z,-1.29
2024-01-17T15:36:53.523Z,-1.30
2024-01-17T15:39:20.752Z,-1.31
2024-01-17T15:41:47.775Z,-1.35
2024-01-17T15:44:14.578Z,-1.37
2024-01-17T15:46:41.115Z,-1.37
2024-01-17T15:49:09.362Z,-1.38
2024-01-17T15:51:35.979Z,-1.38
2024-01-17T15:54:02.513Z,-1.37
2024-01-17T15:56:29.052Z,-1.32
2024-01-17T15:58:55.505Z,-1.32
2024-01-17T16:01:21.983Z,-1.31
2024-01-17T16:03:48.419Z,-1.28
2024-01-17T16:06:15.496Z,-1.29
2024-01-17T16:08:42.099Z,-1.28
2024-01-17T16:11:08.573Z,-1.27
2024-01-17T16:13:34.995Z,-1.27
2024-01-17T16:16:02.494Z,-1.26
2024-01-17T16:18:29.024Z,-1.26
2024-01-17T16:20:55.783Z,-1.24
2024-01-17T16:23:22.279Z,-1.24
2024-01-17T16:25:48.733Z,-1.25
2024-01-17T16:28:15.710Z,-1.26
2024-01-17T16:30:45.255Z,-1.26
2024-01-17T16:33:11.868Z,-1.28
2024-01-17T16:35:39.302Z,-1.25
2024-01-17T16:38:05.788Z,-1.27
2024-01-17T16:40:32.251Z,-1.26
2024-01-17T16:42:59.691Z,-1.24
2024-01-17T16:45:26.107Z,-1.20
2024-01-17T16:47:54.960Z,-1.20
2024-01-17T16:50:21.419Z,-1.20
2024-01-17T16:52:48.215Z,-1.19
2024-01-17T16:55:14.783Z,-1.18
2024-01-17T16:57:41.318Z,-1.17
2024-01-17T17:00:11.408Z,-1.16
2024-01-17T17:02:38.122Z,-1.15
2024-01-17T17:05:08.710Z,-1.15
2024-01-17T17:07:37.922Z,-1.16
2024-01-17T17:10:04.867Z,-1.18
2024-01-17T17:12:31.394Z,-1.20
2024-01-17T17:14:58.008Z,-1.22
2024-01-17T17:17:24.589Z,-1.23
2024-01-17T17:19:51.261Z,-1.23
2024-01-17T17:22:24.488Z,-1.23
2024-01-17T17:24:56.728Z,-1.24
2024-01-17T17:27:23.220Z,-1.22
2024-01-17T17:29:49.670Z,-1.19
2024-01-17T17:32:24.410Z,-1.21
2024-01-17T17:34:53.367Z,-1.21
2024-01-17T17:37:22.604Z,-1.20
2024-01-17T17:39:49.107Z,-1.20
2024-01-17T17:42:15.716Z,-1.18
2024-01-17T17:44:42.238Z,-1.16
2024-01-17T17:47:08.771Z,-1.13
2024-01-17T17:49:35.323Z,-1.11
2024-01-17T17:52:01.870Z,-1.09
2024-01-17T17:54:28.367Z,-1.08
2024-01-17T17:56:55.052Z,-1.07
2024-01-17T17:59:21.521Z,-1.08
2024-01-17T18:01:47.913Z,-1.06
2024-01-17T18:04:16.180Z,-1.06
2024-01-17T18:06:42.826Z,-1.03
2024-01-17T18:09:09.868Z,-1.02
2024-01-17T18:11:36.443Z,-0.97
2024-01-17T18:14:03.722Z,-0.96
2024-01-17T18:16:31.201Z,-0.95
2024-01-17T18:18:58.093Z,-0.94
2024-01-17T18:21:24.908Z,-0.92
2024-01-17T18:23:53.087Z,-0.89
2024-01-17T18:26:20.013Z,-0.89
2024-01-17T18:28:47.219Z,-0.87
2024-01-17T18:31:13.781Z,-0.86
2024-01-17T18:33:40.615Z,-0.85
2024-01-17T18:36:07.926Z,-0.84
2024-01-17T18:38:34.712Z,-0.84
2024-01-17T18:41:01.243Z,-0.84
2024-01-17T18:43:28.709Z,-0.85
2024-01-17T18:45:55.811Z,-0.83
2024-01-17T18:48:22.550Z,-0.82
2024-01-17T18:50:49.401Z,-0.83
2024-01-17T18:53:15.925Z,-0.83
2024-01-17T18:55:42.419Z,-0.83
2024-01-17T18:58:13.290Z,-0.84
2024-01-17T19:00:40.165Z,-0.82
2024-01-17T19:03:07.019Z,-0.83
2024-01-17T19:05:34.610Z,-0.83
2024-01-17T19:08:01.177Z,-0.80
2024-01-17T19:10:28.299Z,-0.84
2024-01-17T19:12:54.707Z,-0.84
2024-01-17T19:15:21.275Z,-0.82
2024-01-17T19:17:48.452Z,-0.79
2024-01-17T19:20:15.014Z,-0.81
2024-01-17T19:22:41.432Z,-0.79
2024-01-17T19:25:11.681Z,-0.79
2024-01-17T19:27:38.429Z,-0.81
2024-01-17T19:30:05.919Z,-0.80
2024-01-17T19:32:32.474Z,-0.80
2024-01-17T19:34:58.959Z,-0.80
2024-01-17T19:37:25.437Z,-0.79
2024-01-17T19:39:51.877Z,-0.80
2024-01-17T19:42:18.429Z,-0.82
2024-01-17T19:44:44.853Z,-0.81
2024-01-17T19:47:14.394Z,-0.80
2024-01-17T19:49:40.980Z,-0.80
2024-01-17T19:52:09.588Z,-0.79
2024-01-17T19:54:36.117Z,-0.79
2024-01-17T19:57:02.627Z,-0.79
2024-01-17T19:59:29.100Z,-0.78
2024-01-17T20:01:55.596Z,-0.79
2024-01-17T20:04:24.257Z,-0.78
2024-01-17T20:06:50.724Z,-0.78
2024-01-17T20:09:20.913Z,-0.78
2024-01-17T20:11:47.615Z,-0.78
2024-01-17T20:14:14.089Z,-0.79
2024-01-17T20:16:40.569Z,-0.82
2024-01-17T20:19:08.712Z,-0.85
2024-01-17T20:21:35.868Z,-0.85
2024-01-17T20:24:02.638Z,-0.85
2024-01-17T20:26:29.085Z,-0.88
2024-01-17T20:28:55.575Z,-0.86
2024-01-17T20:31:22.101Z,-0.86
2024-01-17T20:33:48.571Z,-0.87
2024-01-17T20:36:17.596Z,-0.86
2024-01-17T20:38:44.163Z,-0.85
2024-01-17T20:41:15.543Z,-0.85
2024-01-17T20:43:46.144Z,-0.84
2024-01-17T20:46:16.636Z,-0.84
2024-01-17T20:48:43.303Z,-0.84
2024-01-17T20:51:09.966Z,-0.84
2024-01-17T20:53:37.300Z,-0.84
2024-01-17T20:56:07.320Z,-0.82
2024-01-17T20:58:34.295Z,-0.80
2024-01-17T21:01:00.676Z,-0.79
2024-01-17T21:03:27.161Z,-0.79
2024-01-17T21:05:53.654Z,-0.78
2024-01-17T21:08:20.059Z,-0.76
2024-01-17T21:10:50.833Z,-0.75
2024-01-17T21:13:17.493Z,-0.75
2024-01-17T21:15:44.108Z,-0.72
2024-01-17T21:18:11.141Z,-0.72
2024-01-17T21:20:37.623Z,-0.74
2024-01-17T21:23:06.777Z,-0.75
2024-01-17T21:25:33.569Z,-0.74
2024-01-17T21:28:00.039Z,-0.74
2024-01-17T21:30:26.476Z,-0.74
2024-01-17T21:32:53.005Z,-0.74
2024-01-17T21:35:19.567Z,-0.75
2024-01-17T21:37:46.501Z,-0.76
2024-01-17T21:40:13.181Z,-0.77
2024-01-17T21:42:39.916Z,-0.80
2024-01-17T21:45:06.833Z,-0.84
2024-01-17T21:47:33.779Z,-0.86
2024-01-17T21:50:00.319Z,-0.90
2024-01-17T21:52:27.298Z,-0.94
2024-01-17T21:54:55.650Z,-1.00
2024-01-17T21:57:24.958Z,-1.04
2024-01-17T21:59:51.722Z,-1.08
2024-01-17T22:02:18.212Z,-1.10
2024-01-17T22:04:44.635Z,-1.16
2024-01-17T22:07:11.303Z,-1.20
2024-01-17T22:09:37.984Z,-1.26
2024-01-17T22:12:04.864Z,-1.32
2024-01-17T22:14:31.387Z,-1.38
2024-01-17T22:16:57.779Z,-1.42
2024-01-17T22:19:24.294Z,-1.46
2024-01-17T22:21:51.276Z,-1.54
2024-01-17T22:24:17.802Z,-1.59
2024-01-17T22:26:44.797Z,-1.63
2024-01-17T22:29:11.334Z,-1.67
2024-01-17T22:31:37.829Z,-1.70
2024-01-17T22:34:06.124Z,-1.75
2024-01-17T22:36:32.842Z,-1.84
2024-01-17T22:38:59.542Z,-1.95
2024-01-17T22:41:26.949Z,-1.99
2024-01-17T22:43:53.401Z,-2.04
2024-01-17T22:46:19.833Z,-2.08
2024-01-17T22:48:46.351Z,-2.13
2024-01-17T22:51:12.791Z,-2.19
2024-01-17T22:53:39.198Z,-2.20
2024-01-17T22:56:05.828Z,-2.25
2024-01-17T22:58:32.268Z,-2.26
2024-01-17T23:00:58.991Z,-2.28
2024-01-17T23:03:25.576Z,-2.31
2024-01-17T23:05:52.172Z,-2.34
2024-01-17T23:08:18.618Z,-2.40
2024-01-17T23:10:45.215Z,-2.43
2024-01-17T23:13:11.610Z,-2.47
2024-01-17T23:15:38.151Z,-2.49
2024-01-17T23:18:05.488Z,-2.51
2024-01-17T23:20:32.128Z,-2.53
2024-01-17T23:22:58.523Z,-2.54
2024-01-17T23:25:24.973Z,-2.50
2024-01-17T23:27:52.106Z,-2.51
2024-01-17T23:30:19.197Z,-2.51
2024-01-17T23:32:45.695Z,-2.53
2024-01-17T23:35:12.218Z,-2.54
2024-01-17T23:37:38.669Z,-2.57
2024-01-17T23:40:05.673Z,-2.57
2024-01-17T23:42:35.232Z,-2.55
2024-01-17T23:45:03.999Z,-2.53
2024-01-17T23:47:30.446Z,-2.50
2024-01-17T23:49:57.479Z,-2.50
2024-01-17T23:52:24.333Z,-2.50
2024-01-17T23:54:50.807Z,-2.44
2024-01-17T23:57:17.314Z,-2.42
2024-01-17T23:59:45.212Z,-2.38
